Time;durP1;ratioP1;P1;durP2;ratioP2;P2;SDS_P1;SDS_P2;PMS_P1;PMS_P2;Temp;Humidity;BMP_temperature;BMP_pressure;BME280_temperature;BME280_humidity;BME280_pressure;Samples;Min_cycle;Max_cycle;Signal;HPM_P1;HPM_P2
2022/03/29 00:00:36;;;;;;;30.27;15.48;;;358.40;768.00;;;;;;5095152;28;20496;-63
2022/03/29 00:03:02;;;;;;;33.75;16.83;;;358.40;768.00;;;;;;5095068;28;20054;-61
2022/03/29 00:05:28;;;;;;;35.25;18.92;;;358.40;742.40;;;;;;5095198;28;20016;-61
2022/03/29 00:07:54;;;;;;;36.95;20.15;;;358.40;742.40;;;;;;5094821;28;20370;-62
2022/03/29 00:10:20;;;;;;;35.60;18.55;;;358.40;768.00;;;;;;5093985;28;20032;-62
2022/03/29 00:12:46;;;;;;;39.22;19.17;;;358.40;768.00;;;;;;5094990;28;20496;-62
2022/03/29 00:15:12;;;;;;;40.22;19.60;;;358.40;742.40;;;;;;5094540;28;20346;-63
2022/03/29 00:17:38;;;;;;;37.22;19.02;;;333.70;768.00;;;;;;5094780;28;20028;-62
2022/03/29 00:20:04;;;;;;;28.27;16.10;;;333.60;768.00;;;;;;5094385;28;20027;-62
2022/03/29 00:22:30;;;;;;;30.25;16.13;;;333.60;768.00;;;;;;5094757;28;20023;-61
2022/03/29 00:24:56;;;;;;;28.33;15.27;;;333.60;742.40;;;;;;5094978;28;20357;-62
2022/03/29 00:27:22;;;;;;;27.70;15.38;;;333.60;742.40;;;;;;5094200;28;20016;-61
2022/03/29 00:29:47;;;;;;;26.38;14.68;;;333.70;742.40;;;;;;5094500;28;20089;-62
2022/03/29 00:32:13;;;;;;;28.13;15.50;;;333.60;768.00;;;;;;5094633;28;20024;-60
2022/03/29 00:34:40;;;;;;;32.42;16.17;;;333.60;768.00;;;;;;5094407;28;20024;-60
2022/03/29 00:37:06;;;;;;;27.67;16.45;;;333.50;768.00;;;;;;5094284;28;20070;-60
2022/03/29 00:39:33;;;;;;;43.42;20.02;;;333.50;768.00;;;;;;5094089;28;20027;-61
2022/03/29 00:42:00;;;;;;;39.22;18.95;;;333.50;793.60;;;;;;5094227;28;20024;-60
2022/03/29 00:44:35;;;;;;;43.10;22.15;;;333.50;768.00;;;;;;5093989;28;20063;-60
2022/03/29 00:47:02;;;;;;;46.55;23.05;;;333.40;793.60;;;;;;5094326;28;20106;-61
2022/03/29 00:49:28;;;;;;;41.75;22.08;;;333.50;793.60;;;;;;5094181;28;20031;-61
2022/03/29 00:51:58;;;;;;;39.20;20.17;;;333.50;793.60;;;;;;5094138;28;20059;-60
2022/03/29 00:54:24;;;;;;;32.42;17.85;;;333.50;768.00;;;;;;5092957;28;20064;-61
2022/03/29 00:56:50;;;;;;;33.60;17.73;;;333.50;768.00;;;;;;5093801;28;20078;-63
2022/03/29 00:59:20;;;;;;;36.35;18.00;;;333.50;768.00;;;;;;5093811;28;20024;-62
2022/03/29 01:01:46;;;;;;;31.05;18.00;;;333.50;793.60;;;;;;5093999;28;20038;-61
2022/03/29 01:04:12;;;;;;;34.40;18.27;;;333.40;768.00;;;;;;5094165;28;20030;-61
2022/03/29 01:06:38;;;;;;;42.10;19.55;;;333.30;768.00;;;;;;5094511;28;20031;-60
2022/03/29 01:09:04;;;;;;;33.97;16.80;;;333.20;793.60;;;;;;5093630;28;20052;-62
2022/03/29 01:11:30;;;;;;;31.38;16.40;;;333.30;768.00;;;;;;5094304;28;20020;-61
2022/03/29 01:13:56;;;;;;;33.75;16.92;;;333.20;768.00;;;;;;5093902;28;20020;-60
2022/03/29 01:19:11;;;;;;;33.17;17.45;;;333.10;768.00;;;;;;5093681;28;20051;-61
2022/03/29 01:21:39;;;;;;;43.15;18.65;;;333.10;768.00;;;;;;5093628;28;20028;-61
2022/03/29 01:24:05;;;;;;;31.45;17.75;;;333.20;793.60;;;;;;5093836;28;20028;-61
2022/03/29 01:26:33;;;;;;;31.58;17.40;;;333.10;742.40;;;;;;5093662;28;20017;-61
2022/03/29 01:29:01;;;;;;;28.17;16.85;;;333.10;742.40;;;;;;5093465;28;20384;-61
2022/03/29 01:31:28;;;;;;;33.67;17.48;;;333.00;742.40;;;;;;5093652;28;20363;-61
2022/03/29 01:33:56;;;;;;;31.48;19.77;;;333.00;742.40;;;;;;5093367;28;20028;-60
2022/03/29 01:36:22;;;;;;;45.92;23.17;;;332.90;742.40;;;;;;5093778;28;20499;-61
2022/03/29 01:38:47;;;;;;;40.30;22.92;;;332.90;742.40;;;;;;5093623;28;20031;-61
2022/03/29 01:41:13;;;;;;;40.45;22.73;;;332.90;768.00;;;;;;5093404;28;20020;-61
2022/03/29 01:43:39;;;;;;;43.03;21.92;;;332.80;768.00;;;;;;5093618;28;20027;-61
2022/03/29 01:46:07;;;;;;;42.92;21.42;;;332.80;768.00;;;;;;5093448;28;20024;-60
2022/03/29 01:48:34;;;;;;;44.72;21.77;;;308.10;742.40;;;;;;5093662;28;20374;-60
2022/03/29 01:50:59;;;;;;;35.88;20.17;;;308.00;742.40;;;;;;5093430;28;20036;-61
2022/03/29 01:53:27;;;;;;;36.13;20.02;;;308.00;768.00;;;;;;5093450;28;20027;-60
2022/03/29 01:55:58;;;;;;;37.13;19.75;;;307.90;768.00;;;;;;5093302;28;20488;-60
2022/03/29 01:58:25;;;;;;;38.05;19.75;;;307.80;768.00;;;;;;5093285;28;20077;-60
2022/03/29 02:00:51;;;;;;;38.58;19.58;;;307.70;793.60;;;;;;5093497;28;20058;-60
2022/03/29 02:03:17;;;;;;;30.40;19.92;;;307.70;793.60;;;;;;5093386;28;20048;-60
2022/03/29 02:05:43;;;;;;;35.85;18.98;;;307.60;793.60;;;;;;5093972;28;20039;-60
2022/03/29 02:08:09;;;;;;;33.20;19.08;;;307.60;793.60;;;;;;5092708;28;20040;-61
2022/03/29 02:10:35;;;;;;;35.58;20.30;;;307.50;819.20;;;;;;5093172;28;20036;-60
2022/03/29 02:13:01;;;;;;;34.60;20.33;;;307.40;819.20;;;;;;5093388;28;20025;-61
2022/03/29 02:15:27;;;;;;;40.25;22.85;;;307.40;819.20;;;;;;5093211;28;20031;-59
2022/03/29 02:17:53;;;;;;;41.72;23.48;;;307.30;844.80;;;;;;5093477;28;20020;-60
2022/03/29 02:20:21;;;;;;;43.92;24.70;;;307.30;844.80;;;;;;5093367;28;20062;-60
2022/03/29 02:22:47;;;;;;;34.20;21.67;;;307.20;844.80;;;;;;5093294;28;20024;-60
2022/03/29 02:25:13;;;;;;;38.70;22.13;;;307.20;870.40;;;;;;5093083;28;20085;-60
2022/03/29 02:27:44;;;;;;;34.03;21.05;;;307.20;870.40;;;;;;5093168;28;20024;-60
2022/03/29 02:30:13;;;;;;;35.40;21.40;;;282.40;870.40;;;;;;5092813;28;20378;-60
2022/03/29 02:32:39;;;;;;;37.30;21.33;;;282.40;870.40;;;;;;5093303;28;20024;-60
2022/03/29 02:35:06;;;;;;;37.53;20.65;;;282.30;896.00;;;;;;5096954;28;20032;-60
2022/03/29 02:37:32;;;;;;;44.38;21.55;;;282.30;896.00;;;;;;5096592;28;20465;-60
2022/03/29 02:39:58;;;;;;;36.92;21.10;;;282.20;896.00;;;;;;5096440;28;20119;-60
2022/03/29 02:42:23;;;;;;;34.78;19.20;;;282.10;896.00;;;;;;5096529;28;20051;-60
2022/03/29 02:44:49;;;;;;;38.20;19.75;;;282.10;896.00;;;;;;5096700;28;20024;-60
2022/03/29 02:47:15;;;;;;;43.65;20.45;;;282.00;870.40;;;;;;5096711;28;20023;-60
2022/03/29 02:49:41;;;;;;;39.95;19.50;;;282.00;870.40;;;;;;5096529;28;20024;-60
2022/03/29 02:52:07;;;;;;;34.28;19.75;;;282.00;870.40;;;;;;5096138;28;20409;-60
2022/03/29 02:54:32;;;;;;;40.65;19.95;;;282.00;870.40;;;;;;5096168;28;20062;-60
2022/03/29 02:56:58;;;;;;;34.58;19.63;;;281.90;870.40;;;;;;5096158;28;20054;-61
2022/03/29 02:59:24;;;;;;;37.38;20.38;;;281.90;870.40;;;;;;5096293;28;20024;-61
2022/03/29 03:01:50;;;;;;;39.83;20.75;;;281.90;870.40;;;;;;5096454;28;20024;-60
2022/03/29 03:04:16;;;;;;;38.58;20.63;;;281.80;870.40;;;;;;5096176;28;20024;-59
2022/03/29 03:06:42;;;;;;;39.47;21.13;;;281.80;844.80;;;;;;5096203;28;20106;-60
2022/03/29 03:09:09;;;;;;;39.55;20.20;;;281.80;844.80;;;;;;5095676;28;20492;-60
2022/03/29 03:11:37;;;;;;;38.80;20.08;;;281.70;844.80;;;;;;5095920;28;20115;-60
2022/03/29 03:14:03;;;;;;;43.55;20.85;;;281.70;819.20;;;;;;5095837;28;20116;-60
2022/03/29 03:16:29;;;;;;;38.40;19.83;;;281.70;844.80;;;;;;5096608;28;20052;-60
2022/03/29 03:18:55;;;;;;;37.17;20.83;;;281.70;819.20;;;;;;5095824;28;20111;-60
2022/03/29 03:21:21;;;;;;;38.85;19.58;;;281.70;819.20;;;;;;5095947;28;20036;-60
2022/03/29 03:23:46;;;;;;;40.20;20.13;;;281.70;793.60;;;;;;5095767;28;20027;-60
2022/03/29 03:26:12;;;;;;;37.75;20.38;;;281.70;793.60;;;;;;5095656;28;20024;-60
2022/03/29 03:28:38;;;;;;;37.38;20.17;;;281.70;793.60;;;;;;5095559;28;20020;-60
2022/03/29 03:31:04;;;;;;;31.05;17.88;;;281.70;793.60;;;;;;5095724;28;20040;-60
2022/03/29 03:33:29;;;;;;;34.42;17.88;;;281.70;793.60;;;;;;5095622;28;20488;-60
2022/03/29 03:35:55;;;;;;;29.33;16.98;;;281.70;768.00;;;;;;5095014;28;20055;-60
2022/03/29 03:38:22;;;;;;;29.88;15.80;;;281.70;768.00;;;;;;5095465;28;20099;-59
2022/03/29 03:40:47;;;;;;;35.03;18.48;;;281.80;768.00;;;;;;5095113;28;20027;-60
2022/03/29 03:43:13;;;;;;;55.55;31.15;;;281.80;768.00;;;;;;5095228;28;20028;-59
2022/03/29 03:45:39;;;;;;;62.83;29.83;;;281.80;768.00;;;;;;5095346;28;20024;-60
2022/03/29 03:48:05;;;;;;;51.33;26.80;;;281.90;768.00;;;;;;5095220;28;20386;-60
2022/03/29 03:50:32;;;;;;;40.40;20.13;;;281.80;768.00;;;;;;5095386;28;20044;-60
2022/03/29 03:53:00;;;;;;;49.08;19.63;;;281.80;768.00;;;;;;5095155;28;20034;-59
2022/03/29 03:55:26;;;;;;;48.65;23.00;;;281.80;768.00;;;;;;5095094;28;20032;-59
2022/03/29 03:57:52;;;;;;;45.65;21.25;;;281.90;793.60;;;;;;5095104;28;20423;-59
2022/03/29 04:00:21;;;;;;;44.55;21.05;;;281.90;793.60;;;;;;5094965;28;20032;-60
2022/03/29 04:02:50;;;;;;;42.88;19.40;;;282.00;819.20;;;;;;5095154;28;20028;-66
2022/03/29 04:05:16;;;;;;;31.60;18.48;;;282.10;819.20;;;;;;5095032;28;20419;-61
2022/03/29 04:07:42;;;;;;;30.83;15.98;;;282.20;819.20;;;;;;5094930;28;20303;-60
2022/03/29 04:10:08;;;;;;;23.30;13.52;;;282.20;819.20;;;;;;5094810;28;20042;-60
2022/03/29 04:12:35;;;;;;;24.33;13.25;;;282.20;844.80;;;;;;5094849;28;20504;-60
2022/03/29 04:15:02;;;;;;;27.85;13.50;;;282.20;819.20;;;;;;5094878;28;20051;-60
2022/03/29 04:17:27;;;;;;;26.08;12.25;;;282.30;844.80;;;;;;5095265;28;20020;-60
2022/03/29 04:19:54;;;;;;;31.55;13.75;;;282.30;844.80;;;;;;5094878;28;20089;-60
2022/03/29 04:22:20;;;;;;;42.10;13.10;;;282.40;844.80;;;;;;5094198;28;20073;-60
2022/03/29 04:24:46;;;;;;;30.02;14.30;;;282.50;870.40;;;;;;5094987;28;20032;-61
2022/03/29 04:27:12;;;;;;;40.58;16.08;;;282.50;870.40;;;;;;5094678;28;20068;-61
2022/03/29 04:29:37;;;;;;;57.75;23.63;;;282.50;896.00;;;;;;5094417;28;20043;-60
2022/03/29 04:32:03;;;;;;;66.38;28.23;;;307.20;921.60;;;;;;5094606;28;20105;-60
2022/03/29 04:34:29;;;;;;;66.93;30.98;;;307.20;896.00;;;;;;5094518;28;20024;-60
2022/03/29 04:36:58;;;;;;;61.20;32.63;;;307.20;870.40;;;;;;5094523;28;20510;-60
2022/03/29 04:39:24;;;;;;;52.05;29.10;;;307.20;896.00;;;;;;5094547;28;20043;-60
2022/03/29 04:41:50;;;;;;;66.22;31.27;;;307.20;896.00;;;;;;5094405;28;20032;-60
2022/03/29 04:44:16;;;;;;;60.13;27.65;;;307.30;896.00;;;;;;5094299;28;20103;-60
2022/03/29 04:46:42;;;;;;;47.00;24.33;;;307.30;896.00;;;;;;5094499;28;20034;-60
2022/03/29 04:49:07;;;;;;;42.50;24.20;;;307.30;896.00;;;;;;5094280;28;20028;-60
2022/03/29 04:51:34;;;;;;;38.45;21.48;;;307.30;896.00;;;;;;5094137;28;20028;-60
2022/03/29 04:54:01;;;;;;;44.72;23.23;;;307.30;896.00;;;;;;5094154;28;20032;-60
2022/03/29 04:56:27;;;;;;;41.25;20.23;;;307.20;921.60;;;;;;5093434;28;20485;-60
2022/03/29 04:58:52;;;;;;;39.80;20.75;;;307.30;921.60;;;;;;5094130;28;20031;-60
2022/03/29 05:01:18;;;;;;;40.58;18.80;;;307.20;921.60;;;;;;5094156;28;20028;-60
2022/03/29 05:03:44;;;;;;;45.97;18.52;;;307.20;921.60;;;;;;5094107;28;20076;-60
2022/03/29 05:06:10;;;;;;;39.08;19.17;;;307.20;921.60;;;;;;5094201;28;20114;-60
2022/03/29 05:08:36;;;;;;;62.53;20.50;;;307.20;921.60;;;;;;5093740;28;20041;-60
2022/03/29 05:11:02;;;;;;;62.25;23.30;;;282.50;896.00;;;;;;5094005;28;20196;-60
2022/03/29 05:13:28;;;;;;;61.25;23.25;;;282.50;921.60;;;;;;5093681;28;20509;-60
2022/03/29 05:15:55;;;;;;;78.38;24.95;;;282.40;921.60;;;;;;5093849;28;20080;-60
2022/03/29 05:18:21;;;;;;;51.45;23.55;;;282.40;921.60;;;;;;5093860;28;20138;-60
2022/03/29 05:20:46;;;;;;;53.15;23.42;;;282.40;921.60;;;;;;5094373;28;20474;-60
2022/03/29 05:23:15;;;;;;;47.38;23.38;;;282.40;921.60;;;;;;5093837;28;20024;-60
2022/03/29 05:25:41;;;;;;;70.57;24.38;;;282.40;947.20;;;;;;5093806;28;20023;-60
2022/03/29 05:28:09;;;;;;;45.70;20.88;;;282.30;947.20;;;;;;5093691;28;20024;-60
2022/03/29 05:30:35;;;;;;;46.92;20.88;;;282.30;972.80;;;;;;5093508;28;20048;-59
2022/03/29 05:33:01;;;;;;;43.70;20.33;;;282.40;972.80;;;;;;5092988;28;20485;-59
2022/03/29 05:35:33;;;;;;;43.85;20.73;;;282.40;998.40;;;;;;5092775;28;20385;-60
2022/03/29 05:38:01;;;;;;;45.75;20.25;;;282.40;998.40;;;;;;5090951;28;20098;-59
2022/03/29 05:40:28;;;;;;;39.58;19.52;;;282.40;998.40;;;;;;5092958;28;20031;-60
2022/03/29 05:42:55;;;;;;;42.60;19.25;;;282.40;998.40;;;;;;5090297;28;20038;-59
2022/03/29 05:45:21;;;;;;;41.10;18.30;;;282.40;998.40;;;;;;5092891;28;20081;-59
2022/03/29 05:50:31;;;;;;;39.70;18.25;;;282.50;1024.00;;;;;;5092545;28;20392;-59
2022/03/29 05:52:58;;;;;;;40.72;18.35;;;282.50;1024.00;;;;;;5092763;28;20024;-60
2022/03/29 05:55:25;;;;;;;30.15;16.75;;;282.50;1024.00;;;;;;5092898;28;20028;-59
2022/03/29 05:57:52;;;;;;;44.03;18.50;;;307.20;1049.60;;;;;;5092852;28;20391;-59
2022/03/29 06:00:21;;;;;;;44.88;19.30;;;307.20;1075.20;;;;;;5093509;28;20036;-59
2022/03/29 06:02:46;;;;;;;56.45;21.42;;;307.20;1049.60;;;;;;5093000;28;20028;-60
2022/03/29 06:05:12;;;;;;;51.75;21.35;;;307.30;1075.20;;;;;;5092780;28;20084;-59
2022/03/29 06:07:38;;;;;;;66.82;28.00;;;307.30;1075.20;;;;;;5090087;28;20024;-60
2022/03/29 06:10:06;;;;;;;206.68;95.90;;;307.40;1075.20;;;;;;5097183;28;20159;-60
2022/03/29 06:12:32;;;;;;;214.50;86.00;;;307.50;1075.20;;;;;;5097252;28;20363;-60
2022/03/29 06:15:02;;;;;;;141.70;57.38;;;307.60;1075.20;;;;;;5097134;28;20031;-59
2022/03/29 06:17:28;;;;;;;60.88;27.45;;;307.70;1075.20;;;;;;5096674;28;20028;-59
2022/03/29 06:19:54;;;;;;;46.42;23.73;;;307.70;1075.20;;;;;;5096262;28;20028;-59
2022/03/29 06:22:20;;;;;;;52.67;22.88;;;307.70;1075.20;;;;;;5097038;28;20028;-59
2022/03/29 06:24:46;;;;;;;43.67;20.70;;;307.80;1075.20;;;;;;5097196;28;20035;-59
2022/03/29 06:27:12;;;;;;;38.33;18.75;;;307.90;1075.20;;;;;;5096939;28;20085;-60
2022/03/29 06:29:38;;;;;;;34.85;18.42;;;308.00;1075.20;;;;;;5096100;28;20470;-60
2022/03/29 06:32:04;;;;;;;38.88;17.27;;;308.10;1075.20;;;;;;5096957;28;20024;-60
2022/03/29 06:34:30;;;;;;;38.55;18.15;;;333.00;1305.60;;;;;;5096776;28;20032;-61
2022/03/29 06:36:57;;;;;;;50.92;20.92;;;333.00;1152.00;;;;;;5096812;28;20027;-61
2022/03/29 06:39:23;;;;;;;35.88;19.92;;;333.10;1126.40;;;;;;5096483;28;20027;-60
2022/03/29 06:41:50;;;;;;;52.83;21.75;;;333.10;1126.40;;;;;;5096629;28;20028;-60
2022/03/29 06:44:17;;;;;;;50.38;26.80;;;333.30;1126.40;;;;;;5096558;28;20447;-60
2022/03/29 06:46:43;;;;;;;50.92;24.40;;;333.40;1126.40;;;;;;5096613;28;20035;-61
2022/03/29 06:49:09;;;;;;;38.63;21.10;;;333.50;1100.80;;;;;;5096340;28;20350;-60
2022/03/29 06:51:36;;;;;;;38.65;19.30;;;333.70;1100.80;;;;;;5096480;28;20031;-61
2022/03/29 06:54:03;;;;;;;33.85;18.48;;;358.50;1100.80;;;;;;5096486;28;20450;-61
2022/03/29 06:56:30;;;;;;;34.63;17.52;;;358.50;1100.80;;;;;;5096095;28;20032;-60
2022/03/29 06:58:57;;;;;;;38.50;18.90;;;358.70;1075.20;;;;;;5096088;28;20101;-60
2022/03/29 07:01:23;;;;;;;36.47;17.83;;;358.80;1100.80;;;;;;5096197;28;20069;-60
2022/03/29 07:03:49;;;;;;;37.00;18.70;;;359.00;1075.20;;;;;;5096321;28;20028;-60
2022/03/29 07:06:15;;;;;;;37.03;20.88;;;359.10;1075.20;;;;;;5096132;28;20473;-61
2022/03/29 07:11:25;;;;;;;32.47;19.33;;;384.00;1049.60;;;;;;5096228;28;20046;-61
2022/03/29 07:13:51;;;;;;;40.33;19.90;;;384.20;1049.60;;;;;;5096130;28;20103;-61
2022/03/29 07:16:17;;;;;;;35.92;19.58;;;384.40;1049.60;;;;;;5095946;28;20024;-60
2022/03/29 07:18:43;;;;;;;34.05;19.52;;;384.50;1049.60;;;;;;5095523;28;20027;-60
2022/03/29 07:21:12;;;;;;;42.28;20.90;;;384.70;1024.00;;;;;;5095962;28;20525;-61
2022/03/29 07:23:39;;;;;;;33.45;18.50;;;384.90;1024.00;;;;;;5095821;28;20031;-61
2022/03/29 07:26:05;;;;;;;29.85;17.90;;;409.70;1049.60;;;;;;5095677;28;20035;-60
2022/03/29 07:28:32;;;;;;;29.85;18.58;;;410.00;1024.00;;;;;;5095294;28;20028;-61
2022/03/29 07:30:57;;;;;;;26.85;18.05;;;410.10;998.40;;;;;;5095639;28;20040;-60
2022/03/29 07:33:23;;;;;;;31.77;17.80;;;410.30;998.40;;;;;;5095633;28;20073;-60
2022/03/29 07:35:49;;;;;;;38.50;20.17;;;410.40;998.40;;;;;;5095358;28;20024;-61
2022/03/29 07:38:15;;;;;;;39.85;19.35;;;435.20;972.80;;;;;;5095418;28;20032;-60
2022/03/29 07:40:43;;;;;;;30.75;17.42;;;435.40;972.80;;;;;;5095295;28;20061;-60
2022/03/29 07:43:11;;;;;;;28.48;16.60;;;435.50;947.20;;;;;;5095379;28;20410;-60
2022/03/29 07:45:37;;;;;;;27.70;16.85;;;435.60;921.60;;;;;;5095457;28;20028;-61
2022/03/29 07:48:04;;;;;;;30.25;16.83;;;435.80;921.60;;;;;;5095565;28;20020;-60
2022/03/29 07:50:32;;;;;;;33.03;17.45;;;436.00;896.00;;;;;;5094742;28;20491;-60
2022/03/29 07:52:59;;;;;;;33.63;16.48;;;436.10;896.00;;;;;;5095284;28;20031;-61
2022/03/29 07:55:26;;;;;;;28.95;16.73;;;460.90;921.60;;;;;;5095199;28;20393;-60
2022/03/29 07:57:52;;;;;;;33.72;17.90;;;461.00;896.00;;;;;;5095681;28;20463;-61
2022/03/29 08:00:33;;;;;;;30.88;17.23;;;461.10;870.40;;;;;;5095193;28;20063;-61
2022/03/29 08:03:03;;;;;;;33.40;16.88;;;461.20;870.40;;;;;;5094832;28;20020;-60
2022/03/29 08:05:30;;;;;;;36.42;17.65;;;461.40;844.80;;;;;;5095164;28;20032;-61
2022/03/29 08:07:57;;;;;;;29.67;17.83;;;461.50;870.40;;;;;;5094887;28;20382;-60
2022/03/29 08:10:23;;;;;;;27.05;16.85;;;461.60;844.80;;;;;;5095295;28;20422;-60
2022/03/29 08:12:49;;;;;;;25.90;17.30;;;461.70;844.80;;;;;;5094921;28;20016;-61
2022/03/29 08:15:15;;;;;;;28.50;18.67;;;486.40;819.20;;;;;;5094950;28;20050;-60
2022/03/29 08:17:41;;;;;;;35.50;18.38;;;486.40;819.20;;;;;;5094891;28;20041;-61
2022/03/29 08:20:07;;;;;;;34.58;18.63;;;486.50;819.20;;;;;;5095105;28;20027;-60
2022/03/29 08:22:34;;;;;;;26.80;18.85;;;486.70;793.60;;;;;;5094587;28;20024;-60
2022/03/29 08:25:01;;;;;;;34.63;20.42;;;486.80;793.60;;;;;;5094941;28;20439;-61
2022/03/29 08:27:27;;;;;;;31.98;17.50;;;486.90;768.00;;;;;;5094607;28;20032;-61
2022/03/29 08:29:53;;;;;;;34.95;19.27;;;486.90;768.00;;;;;;5093968;28;20378;-61
2022/03/29 08:32:19;;;;;;;30.27;20.15;;;486.90;768.00;;;;;;5093723;28;20081;-61
2022/03/29 08:34:44;;;;;;;34.97;21.38;;;486.90;768.00;;;;;;5094952;28;20024;-60
2022/03/29 08:37:10;;;;;;;32.95;20.13;;;487.00;768.00;;;;;;5094667;28;20020;-61
2022/03/29 08:39:36;;;;;;;57.25;20.80;;;487.20;768.00;;;;;;5094535;28;20462;-60
2022/03/29 08:42:10;;;;;;;35.58;20.10;;;487.30;742.40;;;;;;5094424;28;20024;-61
2022/03/29 08:44:38;;;;;;;35.00;22.30;;;512.00;716.80;;;;;;5094025;28;20032;-61
2022/03/29 08:47:09;;;;;;;29.33;19.13;;;512.20;716.80;;;;;;5094401;28;20047;-61
2022/03/29 08:49:35;;;;;;;28.60;18.85;;;512.20;716.80;;;;;;5094429;28;20130;-60
2022/03/29 08:52:03;;;;;;;31.65;18.88;;;512.20;716.80;;;;;;5094002;28;20028;-61
2022/03/29 08:54:30;;;;;;;33.78;18.90;;;512.20;691.20;;;;;;5093142;28;20027;-61
2022/03/29 08:56:56;;;;;;;41.03;19.55;;;512.20;691.20;;;;;;5094272;28;20032;-60
2022/03/29 08:59:22;;;;;;;44.42;18.42;;;512.30;691.20;;;;;;5094272;28;20024;-61
2022/03/29 09:01:48;;;;;;;30.70;17.77;;;512.50;691.20;;;;;;5094231;28;20359;-61
2022/03/29 09:04:16;;;;;;;26.20;16.00;;;512.70;665.60;;;;;;5093950;28;20104;-61
2022/03/29 09:07:01;;;;;;;32.33;17.13;;;512.70;691.20;;;;;;5094286;28;20028;-60
2022/03/29 09:09:29;;;;;;;;;;;512.90;640.00;;;;;;5094192;28;20040;-61
2022/03/29 09:12:00;;;;;;;28.55;16.27;;;512.90;640.00;;;;;;5094112;28;19915;-60
2022/03/29 09:14:30;;;;;;;27.08;16.42;;;537.60;691.20;;;;;;5094039;28;20422;-61
2022/03/29 09:16:56;;;;;;;25.92;17.30;;;537.60;665.60;;;;;;5094045;28;20020;-61
2022/03/29 09:19:25;;;;;;;26.73;16.90;;;537.60;665.60;;;;;;5093878;28;20028;-61
2022/03/29 09:21:53;;;;;;;24.90;15.65;;;537.70;665.60;;;;;;5093926;28;20028;-61
2022/03/29 09:24:20;;;;;;;30.13;17.38;;;537.80;691.20;;;;;;5093849;28;20036;-60
2022/03/29 09:26:55;;;;;;;26.38;16.42;;;538.00;691.20;;;;;;5093945;28;20472;-60
2022/03/29 09:29:23;;;;;;;28.33;15.00;;;538.10;665.60;;;;;;5093740;28;20039;-61
2022/03/29 09:32:06;;;;;;;24.20;15.60;;;538.10;640.00;;;;;;5093910;28;20035;-61
2022/03/29 09:34:33;;;;;;;26.77;15.82;;;538.10;640.00;;;;;;5093785;28;20081;-61
2022/03/29 09:37:00;;;;;;;23.70;14.35;;;538.20;665.60;;;;;;5093865;28;20369;-61
2022/03/29 09:39:38;;;;;;;30.13;16.40;;;538.30;640.00;;;;;;5093632;28;20032;-61
2022/03/29 09:42:09;;;;;;;24.13;15.13;;;538.30;640.00;;;;;;5094581;28;20031;-61
2022/03/29 09:44:53;;;;;;;25.27;15.45;;;538.40;640.00;;;;;;5097996;28;20161;-61
2022/03/29 09:47:21;;;;;;;27.53;15.50;;;538.40;614.40;;;;;;5097880;28;20035;-60
2022/03/29 09:49:53;;;;;;;25.13;15.48;;;538.50;640.00;;;;;;5097828;28;20418;-61
2022/03/29 09:52:24;;;;;;;27.27;15.77;;;538.50;640.00;;;;;;5097746;28;20027;-61
2022/03/29 09:55:10;;;;;;;23.08;15.32;;;563.20;614.40;;;;;;5097695;28;20021;-60
2022/03/29 09:57:38;;;;;;;23.10;15.80;;;563.40;614.40;;;;;;5097416;28;20111;-61
2022/03/29 10:00:08;;;;;;;27.40;16.63;;;563.50;614.40;;;;;;5097650;28;20392;-61
2022/03/29 10:02:40;;;;;;;22.35;15.93;;;563.50;614.40;;;;;;5097589;28;20381;-61
2022/03/29 10:05:07;;;;;;;22.63;15.73;;;563.60;640.00;;;;;;5096046;28;20023;-61
2022/03/29 10:07:40;;;;;;;20.83;14.70;;;563.70;640.00;;;;;;5097330;28;20024;-61
2022/03/29 10:10:08;;;;;;;32.42;16.52;;;563.80;640.00;;;;;;5097304;28;20075;-61
2022/03/29 10:12:34;;;;;;;25.92;16.30;;;563.70;614.40;;;;;;5097174;28;20367;-60
2022/03/29 10:15:01;;;;;;;31.85;16.92;;;563.80;614.40;;;;;;5097411;28;20559;-61
2022/03/29 10:17:28;;;;;;;25.55;16.25;;;563.80;614.40;;;;;;5097282;28;20032;-61
2022/03/29 10:19:56;;;;;;;22.83;15.32;;;563.90;614.40;;;;;;5097057;28;20024;-61
2022/03/29 10:22:21;;;;;;;24.98;14.77;;;563.80;640.00;;;;;;5097030;28;20073;-61
2022/03/29 10:24:47;;;;;;;27.67;15.27;;;563.70;614.40;;;;;;5097160;28;20024;-61
2022/03/29 10:27:16;;;;;;;26.73;15.35;;;563.70;614.40;;;;;;5096727;28;20028;-61
2022/03/29 10:29:42;;;;;;;28.90;16.88;;;563.70;614.40;;;;;;5097020;28;20046;-60
2022/03/29 10:32:08;;;;;;;25.10;14.73;;;563.90;614.40;;;;;;5097036;28;20031;-61
2022/03/29 10:34:42;;;;;;;25.75;16.55;;;563.90;614.40;;;;;;5096440;28;20046;-61
2022/03/29 10:37:19;;;;;;;25.55;16.38;;;563.90;614.40;;;;;;5096816;28;20027;-61
2022/03/29 10:40:04;;;;;;;32.85;16.20;;;563.90;640.00;;;;;;5096903;28;20121;-61
2022/03/29 10:42:34;;;;;;;29.38;15.70;;;564.00;614.40;;;;;;5096653;28;20023;-61
2022/03/29 10:45:22;;;;;;;33.65;15.68;;;564.00;614.40;;;;;;5096859;28;20028;-61
2022/03/29 10:47:58;;;;;;;28.17;16.52;;;563.90;640.00;;;;;;5096791;28;20385;-61
2022/03/29 10:50:53;;;;;;;63.78;16.38;;;564.10;614.40;;;;;;5096676;28;20054;-61
2022/03/29 10:53:36;;;;;;;32.50;16.38;;;564.10;614.40;;;;;;5095825;28;20085;-61
2022/03/29 10:56:15;;;;;;;29.08;16.10;;;588.80;614.40;;;;;;5096489;28;20112;-61
2022/03/29 10:59:02;;;;;;;24.83;15.27;;;588.90;588.80;;;;;;5096538;28;20026;-61
2022/03/29 11:01:29;;;;;;;24.00;15.85;;;589.00;588.80;;;;;;5096557;28;20055;-61
2022/03/29 11:04:13;;;;;;;28.73;15.63;;;589.10;588.80;;;;;;5096441;28;20020;-61
2022/03/29 11:06:59;;;;;;;;;;;589.10;588.80;;;;;;5096872;28;20076;-61
2022/03/29 11:09:25;;;;;;;26.70;15.95;;;589.00;588.80;;;;;;5094098;28;19916;-61
2022/03/29 11:11:51;;;;;;;22.77;15.30;;;589.10;588.80;;;;;;5096234;28;20036;-61
2022/03/29 11:14:35;;;;;;;21.30;15.27;;;589.10;588.80;;;;;;5096009;28;20028;-61
2022/03/29 11:17:04;;;;;;;24.20;16.08;;;589.10;588.80;;;;;;5096019;28;20105;-61
2022/03/29 11:19:48;;;;;;;30.23;16.88;;;589.20;588.80;;;;;;5096120;28;20028;-61
2022/03/29 11:22:41;;;;;;;25.63;15.03;;;589.30;563.20;;;;;;5096098;28;20024;-61
2022/03/29 11:25:09;;;;;;;23.58;14.77;;;589.30;563.20;;;;;;5095785;28;20513;-61
2022/03/29 11:27:36;;;;;;;26.20;16.63;;;589.40;537.60;;;;;;5096054;28;20032;-61
2022/03/29 11:30:10;;;;;;;21.25;15.00;;;589.40;563.20;;;;;;5095673;28;20060;-61
2022/03/29 11:32:40;;;;;;;19.50;14.68;;;589.50;537.60;;;;;;5096104;28;20043;-61
2022/03/29 11:35:08;;;;;;;23.98;15.05;;;589.50;563.20;;;;;;5095795;28;20047;-61
2022/03/29 11:37:37;;;;;;;27.20;15.38;;;589.60;537.60;;;;;;5095788;28;20016;-61
2022/03/29 11:40:06;;;;;;;28.67;15.90;;;589.70;537.60;;;;;;5095627;28;20032;-61
2022/03/29 11:42:44;;;;;;;46.63;15.32;;;614.40;563.20;;;;;;5095183;28;20020;-61
2022/03/29 11:45:11;;;;;;;30.67;16.58;;;614.40;537.60;;;;;;5095719;28;20024;-61
2022/03/29 11:47:38;;;;;;;24.58;15.85;;;614.40;537.60;;;;;;5095455;28;20377;-61
2022/03/29 11:50:04;;;;;;;26.38;15.60;;;614.40;537.60;;;;;;5095902;28;20032;-62
2022/03/29 11:52:34;;;;;;;40.58;16.38;;;614.50;537.60;;;;;;5095574;28;20050;-61
2022/03/29 11:55:00;;;;;;;23.90;15.80;;;614.50;537.60;;;;;;5095368;28;20369;-62
2022/03/29 11:57:29;;;;;;;28.98;15.93;;;614.50;537.60;;;;;;5095452;28;20111;-62
2022/03/29 11:59:57;;;;;;;25.25;15.70;;;614.50;537.60;;;;;;5093851;28;20097;-61
2022/03/29 12:02:26;;;;;;;28.77;16.10;;;614.50;512.00;;;;;;5095279;28;20024;-61
2022/03/29 12:04:53;;;;;;;25.08;15.32;;;614.50;537.60;;;;;;5095132;28;20483;-61
2022/03/29 12:07:44;;;;;;;31.23;16.92;;;614.50;512.00;;;;;;5095189;28;20024;-61
2022/03/29 12:10:11;;;;;;;29.17;16.25;;;614.50;512.00;;;;;;5074609;28;20075;-61
2022/03/29 12:12:37;;;;;;;38.22;15.40;;;614.60;537.60;;;;;;5074758;28;20432;-61
2022/03/29 12:15:06;;;;;;;29.90;16.15;;;614.60;512.00;;;;;;5074763;28;20096;-62
2022/03/29 12:17:34;;;;;;;37.33;16.05;;;614.60;512.00;;;;;;5074893;28;20409;-61
2022/03/29 12:20:00;;;;;;;33.60;16.98;;;614.50;512.00;;;;;;5074752;28;20078;-62